sensor_id;sensor_type;location;lat;lon;timestamp;P1;durP1;ratioP1;P2;durP2;ratioP2
25609;SDS011;13479;49.044;8.716;2022-07-29T04:17:07;5.25;;;3.22;;
25609;SDS011;13479;49.044;8.716;2022-07-29T04:19:32;7.75;;;3.28;;
25609;SDS011;13479;49.044;8.716;2022-07-29T04:21:58;6.05;;;3.05;;
25609;SDS011;13479;49.044;8.716;2022-07-29T04:24:24;6.55;;;3.50;;
25609;SDS011;13479;49.044;8.716;2022-07-29T04:26:50;5.07;;;3.00;;
25609;SDS011;13479;49.044;8.716;2022-07-29T04:29:15;7.35;;;3.00;;
25609;SDS011;13479;49.044;8.716;2022-07-29T04:31:41;4.43;;;3.20;;
25609;SDS011;13479;49.044;8.716;2022-07-29T04:34:06;5.18;;;3.28;;
25609;SDS011;13479;49.044;8.716;2022-07-29T04:36:32;4.72;;;3.30;;
25609;SDS011;13479;49.044;8.716;2022-07-29T04:38:58;5.57;;;3.20;;
25609;SDS011;13479;49.044;8.716;2022-07-29T04:41:23;4.65;;;2.95;;
25609;SDS011;13479;49.044;8.716;2022-07-29T04:43:49;3.33;;;3.00;;
25609;SDS011;13479;49.044;8.716;2022-07-29T04:46:14;8.65;;;3.45;;
25609;SDS011;13479;49.044;8.716;2022-07-29T04:48:39;3.30;;;3.00;;
25609;SDS011;13479;49.044;8.716;2022-07-29T04:51:04;4.07;;;2.92;;
25609;SDS011;13479;49.044;8.716;2022-07-29T04:53:30;5.18;;;3.20;;
25609;SDS011;13479;49.044;8.716;2022-07-29T04:55:55;6.35;;;3.40;;
25609;SDS011;13479;49.044;8.716;2022-07-29T04:58:20;5.75;;;3.28;;
25609;SDS011;13479;49.044;8.716;2022-07-29T05:00:48;6.35;;;3.20;;
25609;SDS011;13479;49.044;8.716;2022-07-29T05:03:13;5.30;;;2.92;;
25609;SDS011;13479;49.044;8.716;2022-07-29T05:05:38;6.22;;;3.00;;
25609;SDS011;13479;49.044;8.716;2022-07-29T05:08:04;4.85;;;3.00;;
25609;SDS011;13479;49.044;8.716;2022-07-29T05:10:29;7.03;;;3.22;;
25609;SDS011;13479;49.044;8.716;2022-07-29T05:12:55;4.53;;;3.33;;
25609;SDS011;13479;49.044;8.716;2022-07-29T05:15:20;4.43;;;2.75;;
25609;SDS011;13479;49.044;8.716;2022-07-29T05:17:45;4.65;;;2.70;;
25609;SDS011;13479;49.044;8.716;2022-07-29T05:20:10;6.53;;;3.17;;
25609;SDS011;13479;49.044;8.716;2022-07-29T05:22:36;5.72;;;3.08;;
25609;SDS011;13479;49.044;8.716;2022-07-29T05:25:01;5.82;;;3.08;;
25609;SDS011;13479;49.044;8.716;2022-07-29T05:27:27;5.10;;;2.88;;
25609;SDS011;13479;49.044;8.716;2022-07-29T05:29:52;4.68;;;2.80;;
25609;SDS011;13479;49.044;8.716;2022-07-29T05:32:18;8.07;;;2.75;;
25609;SDS011;13479;49.044;8.716;2022-07-29T05:34:43;4.55;;;2.40;;
25609;SDS011;13479;49.044;8.716;2022-07-29T05:37:08;6.30;;;3.17;;
25609;SDS011;13479;49.044;8.716;2022-07-29T05:39:34;4.30;;;2.45;;
25609;SDS011;13479;49.044;8.716;2022-07-29T05:41:59;3.45;;;1.80;;
25609;SDS011;13479;49.044;8.716;2022-07-29T05:44:24;24.48;;;4.28;;
25609;SDS011;13479;49.044;8.716;2022-07-29T05:46:49;9.68;;;3.00;;
25609;SDS011;13479;49.044;8.716;2022-07-29T05:49:15;4.38;;;3.38;;
25609;SDS011;13479;49.044;8.716;2022-07-29T05:51:40;5.40;;;2.67;;
25609;SDS011;13479;49.044;8.716;2022-07-29T05:54:05;4.80;;;2.95;;
25609;SDS011;13479;49.044;8.716;2022-07-29T05:56:31;5.53;;;3.10;;
25609;SDS011;13479;49.044;8.716;2022-07-29T05:58:56;5.13;;;3.22;;
25609;SDS011;13479;49.044;8.716;2022-07-29T06:01:21;5.80;;;2.95;;
25609;SDS011;13479;49.044;8.716;2022-07-29T06:03:46;3.78;;;2.70;;
25609;SDS011;13479;49.044;8.716;2022-07-29T06:06:12;4.60;;;2.80;;
25609;SDS011;13479;49.044;8.716;2022-07-29T06:08:37;4.63;;;2.60;;
25609;SDS011;13479;49.044;8.716;2022-07-29T06:11:03;5.45;;;2.33;;
25609;SDS011;13479;49.044;8.716;2022-07-29T06:13:29;3.95;;;2.67;;
25609;SDS011;13479;49.044;8.716;2022-07-29T06:15:55;5.35;;;2.75;;
25609;SDS011;13479;49.044;8.716;2022-07-29T06:18:20;9.68;;;2.85;;
25609;SDS011;13479;49.044;8.716;2022-07-29T06:20:48;5.22;;;2.58;;
25609;SDS011;13479;49.044;8.716;2022-07-29T06:23:17;4.70;;;2.55;;
25609;SDS011;13479;49.044;8.716;2022-07-29T06:25:43;9.98;;;2.80;;
25609;SDS011;13479;49.044;8.716;2022-07-29T06:28:08;4.22;;;2.20;;
25609;SDS011;13479;49.044;8.716;2022-07-29T06:30:34;4.72;;;2.60;;
25609;SDS011;13479;49.044;8.716;2022-07-29T06:32:59;7.93;;;2.40;;
25609;SDS011;13479;49.044;8.716;2022-07-29T06:35:26;5.93;;;3.00;;
25609;SDS011;13479;49.044;8.716;2022-07-29T06:37:52;6.00;;;2.97;;
25609;SDS011;13479;49.044;8.716;2022-07-29T06:40:17;5.60;;;2.40;;
25609;SDS011;13479;49.044;8.716;2022-07-29T06:43:01;6.35;;;2.50;;
25609;SDS011;13479;49.044;8.716;2022-07-29T06:45:26;9.27;;;2.60;;
25609;SDS011;13479;49.044;8.716;2022-07-29T06:47:51;6.10;;;2.45;;
25609;SDS011;13479;49.044;8.716;2022-07-29T06:50:17;6.65;;;2.78;;
25609;SDS011;13479;49.044;8.716;2022-07-29T06:52:42;4.78;;;2.78;;
25609;SDS011;13479;49.044;8.716;2022-07-29T06:55:07;6.28;;;2.72;;
25609;SDS011;13479;49.044;8.716;2022-07-29T06:57:33;9.27;;;2.97;;
25609;SDS011;13479;49.044;8.716;2022-07-29T06:59:58;6.78;;;2.80;;
25609;SDS011;13479;49.044;8.716;2022-07-29T07:02:24;5.78;;;2.72;;
25609;SDS011;13479;49.044;8.716;2022-07-29T07:04:49;8.02;;;2.63;;
25609;SDS011;13479;49.044;8.716;2022-07-29T07:07:14;7.45;;;2.63;;
25609;SDS011;13479;49.044;8.716;2022-07-29T07:09:40;11.38;;;2.90;;
25609;SDS011;13479;49.044;8.716;2022-07-29T07:12:05;8.40;;;2.63;;
25609;SDS011;13479;49.044;8.716;2022-07-29T07:14:30;5.03;;;2.95;;
25609;SDS011;13479;49.044;8.716;2022-07-29T07:16:56;10.48;;;3.13;;
25609;SDS011;13479;49.044;8.716;2022-07-29T07:19:21;7.60;;;2.72;;
25609;SDS011;13479;49.044;8.716;2022-07-29T07:21:47;4.47;;;2.58;;
25609;SDS011;13479;49.044;8.716;2022-07-29T07:24:12;3.78;;;2.15;;
25609;SDS011;13479;49.044;8.716;2022-07-29T07:26:37;3.85;;;2.22;;
25609;SDS011;13479;49.044;8.716;2022-07-29T07:29:04;8.43;;;2.80;;
25609;SDS011;13479;49.044;8.716;2022-07-29T07:31:30;7.28;;;2.30;;
25609;SDS011;13479;49.044;8.716;2022-07-29T07:33:55;5.75;;;2.50;;
25609;SDS011;13479;49.044;8.716;2022-07-29T07:36:20;5.97;;;2.22;;
25609;SDS011;13479;49.044;8.716;2022-07-29T07:38:46;4.53;;;2.22;;
25609;SDS011;13479;49.044;8.716;2022-07-29T07:41:11;5.88;;;2.35;;
25609;SDS011;13479;49.044;8.716;2022-07-29T07:43:36;3.63;;;1.90;;
25609;SDS011;13479;49.044;8.716;2022-07-29T07:46:02;4.85;;;2.10;;
25609;SDS011;13479;49.044;8.716;2022-07-29T07:48:27;7.45;;;2.60;;
25609;SDS011;13479;49.044;8.716;2022-07-29T07:50:53;4.35;;;2.30;;
25609;SDS011;13479;49.044;8.716;2022-07-29T07:53:18;5.75;;;1.90;;
25609;SDS011;13479;49.044;8.716;2022-07-29T07:55:43;6.43;;;2.67;;
25609;SDS011;13479;49.044;8.716;2022-07-29T07:58:09;10.02;;;2.60;;
25609;SDS011;13479;49.044;8.716;2022-07-29T08:00:35;6.55;;;2.42;;
25609;SDS011;13479;49.044;8.716;2022-07-29T08:03:00;4.53;;;2.20;;
25609;SDS011;13479;49.044;8.716;2022-07-29T08:05:26;6.30;;;2.22;;
25609;SDS011;13479;49.044;8.716;2022-07-29T08:07:51;6.10;;;2.40;;
25609;SDS011;13479;49.044;8.716;2022-07-29T08:10:17;5.30;;;2.67;;
25609;SDS011;13479;49.044;8.716;2022-07-29T08:13:04;3.78;;;2.00;;
25609;SDS011;13479;49.044;8.716;2022-07-29T08:15:31;5.90;;;1.98;;
25609;SDS011;13479;49.044;8.716;2022-07-29T08:17:56;4.30;;;2.25;;
25609;SDS011;13479;49.044;8.716;2022-07-29T08:20:22;3.92;;;2.00;;
25609;SDS011;13479;49.044;8.716;2022-07-29T08:22:47;3.63;;;2.05;;
25609;SDS011;13479;49.044;8.716;2022-07-29T08:25:12;5.22;;;2.30;;
25609;SDS011;13479;49.044;8.716;2022-07-29T08:27:37;5.47;;;2.22;;
25609;SDS011;13479;49.044;8.716;2022-07-29T08:30:03;8.60;;;2.20;;
25609;SDS011;13479;49.044;8.716;2022-07-29T08:32:29;4.93;;;2.25;;
25609;SDS011;13479;49.044;8.716;2022-07-29T08:34:56;5.20;;;2.20;;
25609;SDS011;13479;49.044;8.716;2022-07-29T08:37:21;8.30;;;2.80;;
25609;SDS011;13479;49.044;8.716;2022-07-29T08:39:46;13.43;;;2.78;;
25609;SDS011;13479;49.044;8.716;2022-07-29T08:42:11;14.57;;;3.33;;
25609;SDS011;13479;49.044;8.716;2022-07-29T08:44:37;9.20;;;2.30;;
25609;SDS011;13479;49.044;8.716;2022-07-29T08:47:03;6.72;;;2.33;;
25609;SDS011;13479;49.044;8.716;2022-07-29T08:49:28;6.70;;;2.60;;
25609;SDS011;13479;49.044;8.716;2022-07-29T08:51:53;6.63;;;2.20;;
25609;SDS011;13479;49.044;8.716;2022-07-29T08:54:21;3.95;;;2.20;;
25609;SDS011;13479;49.044;8.716;2022-07-29T08:56:48;7.22;;;2.30;;
25609;SDS011;13479;49.044;8.716;2022-07-29T08:59:15;7.85;;;2.35;;
25609;SDS011;13479;49.044;8.716;2022-07-29T09:01:45;11.02;;;2.50;;
25609;SDS011;13479;49.044;8.716;2022-07-29T09:04:12;7.13;;;2.38;;
25609;SDS011;13479;49.044;8.716;2022-07-29T09:06:42;9.73;;;2.60;;
25609;SDS011;13479;49.044;8.716;2022-07-29T09:09:09;6.30;;;2.33;;
25609;SDS011;13479;49.044;8.716;2022-07-29T09:11:34;7.47;;;2.20;;
25609;SDS011;13479;49.044;8.716;2022-07-29T09:14:00;5.68;;;2.35;;
25609;SDS011;13479;49.044;8.716;2022-07-29T09:16:25;5.65;;;2.25;;
25609;SDS011;13479;49.044;8.716;2022-07-29T09:18:51;3.33;;;1.90;;
25609;SDS011;13479;49.044;8.716;2022-07-29T09:21:17;6.85;;;2.20;;
25609;SDS011;13479;49.044;8.716;2022-07-29T09:26:35;6.60;;;2.42;;
25609;SDS011;13479;49.044;8.716;2022-07-29T09:29:07;6.80;;;2.00;;
25609;SDS011;13479;49.044;8.716;2022-07-29T09:31:36;4.97;;;2.13;;
25609;SDS011;13479;49.044;8.716;2022-07-29T09:34:03;5.63;;;2.10;;
25609;SDS011;13479;49.044;8.716;2022-07-29T09:36:29;6.22;;;2.30;;
25609;SDS011;13479;49.044;8.716;2022-07-29T09:39:01;4.40;;;2.03;;
25609;SDS011;13479;49.044;8.716;2022-07-29T09:41:28;6.57;;;2.00;;
25609;SDS011;13479;49.044;8.716;2022-07-29T09:43:54;5.68;;;1.95;;
25609;SDS011;13479;49.044;8.716;2022-07-29T09:46:24;4.78;;;2.00;;
25609;SDS011;13479;49.044;8.716;2022-07-29T09:51:34;7.25;;;2.00;;
25609;SDS011;13479;49.044;8.716;2022-07-29T09:54:00;4.43;;;1.92;;
25609;SDS011;13479;49.044;8.716;2022-07-29T09:56:38;5.13;;;1.80;;
25609;SDS011;13479;49.044;8.716;2022-07-29T09:59:05;5.72;;;2.15;;
25609;SDS011;13479;49.044;8.716;2022-07-29T10:01:31;5.85;;;1.88;;
25609;SDS011;13479;49.044;8.716;2022-07-29T10:03:56;4.75;;;2.13;;
25609;SDS011;13479;49.044;8.716;2022-07-29T10:06:22;5.65;;;1.83;;
25609;SDS011;13479;49.044;8.716;2022-07-29T10:08:47;5.10;;;1.92;;
25609;SDS011;13479;49.044;8.716;2022-07-29T10:11:18;5.63;;;1.80;;
25609;SDS011;13479;49.044;8.716;2022-07-29T10:13:44;5.88;;;2.03;;
25609;SDS011;13479;49.044;8.716;2022-07-29T10:16:12;3.22;;;2.10;;
25609;SDS011;13479;49.044;8.716;2022-07-29T10:18:38;4.13;;;1.90;;
25609;SDS011;13479;49.044;8.716;2022-07-29T10:21:04;2.92;;;1.50;;
25609;SDS011;13479;49.044;8.716;2022-07-29T10:23:30;6.00;;;2.10;;
25609;SDS011;13479;49.044;8.716;2022-07-29T10:25:55;4.65;;;1.85;;
25609;SDS011;13479;49.044;8.716;2022-07-29T10:28:21;4.40;;;2.20;;
25609;SDS011;13479;49.044;8.716;2022-07-29T10:30:46;11.15;;;2.15;;
25609;SDS011;13479;49.044;8.716;2022-07-29T10:39:05;4.15;;;1.80;;
25609;SDS011;13479;49.044;8.716;2022-07-29T10:44:21;5.65;;;1.85;;
25609;SDS011;13479;49.044;8.716;2022-07-29T10:46:47;5.28;;;1.90;;
25609;SDS011;13479;49.044;8.716;2022-07-29T10:49:14;5.72;;;1.80;;
25609;SDS011;13479;49.044;8.716;2022-07-29T10:57:18;5.25;;;1.65;;
25609;SDS011;13479;49.044;8.716;2022-07-29T10:59:51;4.40;;;1.80;;
25609;SDS011;13479;49.044;8.716;2022-07-29T11:10:39;3.13;;;1.70;;
25609;SDS011;13479;49.044;8.716;2022-07-29T11:13:05;5.40;;;1.80;;
25609;SDS011;13479;49.044;8.716;2022-07-29T11:15:51;3.58;;;1.70;;
25609;SDS011;13479;49.044;8.716;2022-07-29T11:18:22;3.70;;;1.77;;
25609;SDS011;13479;49.044;8.716;2022-07-29T11:20:49;3.28;;;1.80;;
25609;SDS011;13479;49.044;8.716;2022-07-29T11:23:25;3.53;;;1.70;;
25609;SDS011;13479;49.044;8.716;2022-07-29T11:26:13;5.63;;;1.70;;
25609;SDS011;13479;49.044;8.716;2022-07-29T11:31:16;5.10;;;1.90;;
25609;SDS011;13479;49.044;8.716;2022-07-29T11:33:44;4.53;;;1.90;;
25609;SDS011;13479;49.044;8.716;2022-07-29T11:36:10;7.15;;;1.70;;
25609;SDS011;13479;49.044;8.716;2022-07-29T11:38:38;5.38;;;1.73;;
25609;SDS011;13479;49.044;8.716;2022-07-29T11:41:20;5.90;;;1.50;;
25609;SDS011;13479;49.044;8.716;2022-07-29T11:43:50;5.90;;;2.00;;
25609;SDS011;13479;49.044;8.716;2022-07-29T11:46:18;6.97;;;2.10;;
25609;SDS011;13479;49.044;8.716;2022-07-29T11:49:22;3.15;;;1.98;;
25609;SDS011;13479;49.044;8.716;2022-07-29T11:51:52;3.53;;;1.73;;
25609;SDS011;13479;49.044;8.716;2022-07-29T11:54:28;3.28;;;1.80;;
25609;SDS011;13479;49.044;8.716;2022-07-29T11:56:57;7.68;;;2.08;;
25609;SDS011;13479;49.044;8.716;2022-07-29T11:59:23;4.10;;;1.70;;
25609;SDS011;13479;49.044;8.716;2022-07-29T12:01:55;5.03;;;2.13;;
25609;SDS011;13479;49.044;8.716;2022-07-29T12:04:22;6.55;;;2.10;;
25609;SDS011;13479;49.044;8.716;2022-07-29T12:06:51;6.53;;;2.00;;
25609;SDS011;13479;49.044;8.716;2022-07-29T12:09:18;3.03;;;1.80;;
25609;SDS011;13479;49.044;8.716;2022-07-29T12:11:45;3.25;;;1.90;;
25609;SDS011;13479;49.044;8.716;2022-07-29T12:14:24;3.88;;;1.80;;
25609;SDS011;13479;49.044;8.716;2022-07-29T12:16:56;3.72;;;1.95;;
25609;SDS011;13479;49.044;8.716;2022-07-29T12:19:23;5.55;;;1.90;;
25609;SDS011;13479;49.044;8.716;2022-07-29T12:21:50;3.10;;;1.83;;
25609;SDS011;13479;49.044;8.716;2022-07-29T12:24:16;3.38;;;1.50;;
25609;SDS011;13479;49.044;8.716;2022-07-29T12:26:54;6.28;;;2.00;;
25609;SDS011;13479;49.044;8.716;2022-07-29T12:29:21;4.20;;;1.88;;
25609;SDS011;13479;49.044;8.716;2022-07-29T12:31:50;4.53;;;1.70;;
25609;SDS011;13479;49.044;8.716;2022-07-29T12:34:18;4.40;;;1.70;;
25609;SDS011;13479;49.044;8.716;2022-07-29T12:36:45;3.78;;;1.70;;
25609;SDS011;13479;49.044;8.716;2022-07-29T12:39:11;4.97;;;1.70;;
25609;SDS011;13479;49.044;8.716;2022-07-29T12:41:37;3.83;;;1.55;;
25609;SDS011;13479;49.044;8.716;2022-07-29T12:44:02;11.00;;;1.80;;
25609;SDS011;13479;49.044;8.716;2022-07-29T12:46:28;5.47;;;2.00;;
25609;SDS011;13479;49.044;8.716;2022-07-29T12:48:53;3.95;;;1.67;;
25609;SDS011;13479;49.044;8.716;2022-07-29T12:51:32;8.15;;;1.90;;
25609;SDS011;13479;49.044;8.716;2022-07-29T12:54:12;9.57;;;2.05;;
25609;SDS011;13479;49.044;8.716;2022-07-29T12:56:39;5.50;;;2.00;;
25609;SDS011;13479;49.044;8.716;2022-07-29T12:59:15;2.67;;;1.67;;
25609;SDS011;13479;49.044;8.716;2022-07-29T13:01:43;7.05;;;2.10;;
25609;SDS011;13479;49.044;8.716;2022-07-29T13:04:11;3.30;;;1.92;;
25609;SDS011;13479;49.044;8.716;2022-07-29T13:06:49;2.80;;;1.80;;
25609;SDS011;13479;49.044;8.716;2022-07-29T13:09:35;5.97;;;1.92;;
25609;SDS011;13479;49.044;8.716;2022-07-29T13:12:06;4.18;;;1.98;;
25609;SDS011;13479;49.044;8.716;2022-07-29T13:14:35;2.60;;;1.63;;
25609;SDS011;13479;49.044;8.716;2022-07-29T13:17:09;4.97;;;1.60;;
25609;SDS011;13479;49.044;8.716;2022-07-29T13:19:39;6.72;;;2.20;;
25609;SDS011;13479;49.044;8.716;2022-07-29T13:22:10;2.55;;;1.70;;
25609;SDS011;13479;49.044;8.716;2022-07-29T13:24:46;3.65;;;1.58;;
25609;SDS011;13479;49.044;8.716;2022-07-29T13:27:14;3.83;;;1.65;;
25609;SDS011;13479;49.044;8.716;2022-07-29T13:29:41;7.28;;;1.42;;
25609;SDS011;13479;49.044;8.716;2022-07-29T13:32:06;6.60;;;1.83;;
25609;SDS011;13479;49.044;8.716;2022-07-29T13:34:32;9.07;;;1.80;;
25609;SDS011;13479;49.044;8.716;2022-07-29T13:36:57;3.35;;;1.40;;
25609;SDS011;13479;49.044;8.716;2022-07-29T13:39:22;8.50;;;1.60;;
25609;SDS011;13479;49.044;8.716;2022-07-29T13:41:48;2.50;;;1.50;;
25609;SDS011;13479;49.044;8.716;2022-07-29T13:44:13;6.03;;;1.45;;
25609;SDS011;13479;49.044;8.716;2022-07-29T13:46:39;3.53;;;1.55;;
25609;SDS011;13479;49.044;8.716;2022-07-29T13:49:04;4.35;;;1.25;;
25609;SDS011;13479;49.044;8.716;2022-07-29T13:51:30;2.78;;;1.27;;
25609;SDS011;13479;49.044;8.716;2022-07-29T13:53:55;3.38;;;1.50;;
25609;SDS011;13479;49.044;8.716;2022-07-29T13:56:20;3.75;;;1.20;;
25609;SDS011;13479;49.044;8.716;2022-07-29T13:58:46;4.18;;;1.40;;
25609;SDS011;13479;49.044;8.716;2022-07-29T14:01:11;6.05;;;1.30;;
25609;SDS011;13479;49.044;8.716;2022-07-29T14:03:37;3.63;;;1.17;;
25609;SDS011;13479;49.044;8.716;2022-07-29T14:06:06;5.25;;;1.50;;
25609;SDS011;13479;49.044;8.716;2022-07-29T14:08:31;8.00;;;1.35;;
25609;SDS011;13479;49.044;8.716;2022-07-29T14:10:56;4.55;;;1.40;;
25609;SDS011;13479;49.044;8.716;2022-07-29T14:13:22;5.80;;;1.30;;
25609;SDS011;13479;49.044;8.716;2022-07-29T14:15:47;3.58;;;1.42;;
25609;SDS011;13479;49.044;8.716;2022-07-29T14:18:12;2.03;;;1.20;;
25609;SDS011;13479;49.044;8.716;2022-07-29T14:20:37;9.25;;;1.25;;
25609;SDS011;13479;49.044;8.716;2022-07-29T14:23:03;4.38;;;1.42;;
25609;SDS011;13479;49.044;8.716;2022-07-29T14:25:28;9.95;;;1.35;;
25609;SDS011;13479;49.044;8.716;2022-07-29T14:27:53;4.82;;;1.23;;
25609;SDS011;13479;49.044;8.716;2022-07-29T14:30:19;2.08;;;1.00;;
25609;SDS011;13479;49.044;8.716;2022-07-29T14:32:44;3.85;;;1.20;;
25609;SDS011;13479;49.044;8.716;2022-07-29T14:35:10;1.65;;;1.00;;
25609;SDS011;13479;49.044;8.716;2022-07-29T14:37:35;3.15;;;1.25;;
25609;SDS011;13479;49.044;8.716;2022-07-29T14:40:01;3.65;;;1.30;;
25609;SDS011;13479;49.044;8.716;2022-07-29T14:42:28;2.25;;;1.10;;
25609;SDS011;13479;49.044;8.716;2022-07-29T14:44:56;2.00;;;0.98;;
25609;SDS011;13479;49.044;8.716;2022-07-29T14:47:21;2.65;;;1.10;;
25609;SDS011;13479;49.044;8.716;2022-07-29T14:49:47;5.15;;;1.20;;
25609;SDS011;13479;49.044;8.716;2022-07-29T14:52:12;4.43;;;1.38;;
25609;SDS011;13479;49.044;8.716;2022-07-29T14:54:37;2.47;;;1.10;;
25609;SDS011;13479;49.044;8.716;2022-07-29T14:57:03;4.47;;;1.30;;
25609;SDS011;13479;49.044;8.716;2022-07-29T14:59:28;5.38;;;1.35;;
25609;SDS011;13479;49.044;8.716;2022-07-29T15:01:53;4.55;;;1.20;;
25609;SDS011;13479;49.044;8.716;2022-07-29T15:04:18;4.88;;;1.15;;
25609;SDS011;13479;49.044;8.716;2022-07-29T15:06:44;3.90;;;1.10;;
25609;SDS011;13479;49.044;8.716;2022-07-29T15:09:09;5.28;;;1.15;;
25609;SDS011;13479;49.044;8.716;2022-07-29T15:11:34;4.50;;;1.13;;
25609;SDS011;13479;49.044;8.716;2022-07-29T15:13:59;5.32;;;1.23;;
25609;SDS011;13479;49.044;8.716;2022-07-29T15:16:25;2.80;;;1.20;;
25609;SDS011;13479;49.044;8.716;2022-07-29T15:18:50;2.95;;;1.10;;
25609;SDS011;13479;49.044;8.716;2022-07-29T15:21:15;4.90;;;1.20;;
25609;SDS011;13479;49.044;8.716;2022-07-29T15:23:40;9.25;;;1.30;;
25609;SDS011;13479;49.044;8.716;2022-07-29T15:26:06;3.47;;;1.20;;
25609;SDS011;13479;49.044;8.716;2022-07-29T15:28:31;5.22;;;1.33;;
25609;SDS011;13479;49.044;8.716;2022-07-29T15:30:56;7.10;;;1.30;;
25609;SDS011;13479;49.044;8.716;2022-07-29T15:33:21;2.67;;;1.30;;
25609;SDS011;13479;49.044;8.716;2022-07-29T15:35:47;4.75;;;1.10;;
25609;SDS011;13479;49.044;8.716;2022-07-29T15:38:12;2.75;;;1.23;;
25609;SDS011;13479;49.044;8.716;2022-07-29T15:40:38;3.13;;;1.20;;
25609;SDS011;13479;49.044;8.716;2022-07-29T15:43:06;2.90;;;0.98;;
25609;SDS011;13479;49.044;8.716;2022-07-29T15:45:35;3.53;;;1.20;;
25609;SDS011;13479;49.044;8.716;2022-07-29T15:48:04;6.90;;;1.17;;
25609;SDS011;13479;49.044;8.716;2022-07-29T15:50:31;3.42;;;1.15;;
25609;SDS011;13479;49.044;8.716;2022-07-29T15:52:56;4.28;;;1.35;;
25609;SDS011;13479;49.044;8.716;2022-07-29T15:55:22;3.92;;;1.00;;
25609;SDS011;13479;49.044;8.716;2022-07-29T15:57:48;2.28;;;1.10;;
25609;SDS011;13479;49.044;8.716;2022-07-29T16:00:13;5.25;;;1.20;;
25609;SDS011;13479;49.044;8.716;2022-07-29T16:02:41;5.20;;;1.33;;
25609;SDS011;13479;49.044;8.716;2022-07-29T16:05:06;3.17;;;1.20;;
25609;SDS011;13479;49.044;8.716;2022-07-29T16:07:31;2.85;;;1.20;;
25609;SDS011;13479;49.044;8.716;2022-07-29T16:09:56;3.60;;;1.20;;
25609;SDS011;13479;49.044;8.716;2022-07-29T16:12:22;3.38;;;0.90;;
25609;SDS011;13479;49.044;8.716;2022-07-29T16:14:47;2.47;;;1.00;;
25609;SDS011;13479;49.044;8.716;2022-07-29T16:17:14;4.43;;;1.00;;
25609;SDS011;13479;49.044;8.716;2022-07-29T16:19:40;4.50;;;1.20;;
25609;SDS011;13479;49.044;8.716;2022-07-29T16:22:05;5.63;;;1.20;;
25609;SDS011;13479;49.044;8.716;2022-07-29T16:24:30;2.58;;;1.00;;
25609;SDS011;13479;49.044;8.716;2022-07-29T16:26:57;3.78;;;1.20;;
25609;SDS011;13479;49.044;8.716;2022-07-29T16:29:22;4.43;;;1.20;;
25609;SDS011;13479;49.044;8.716;2022-07-29T16:31:47;2.05;;;1.10;;
25609;SDS011;13479;49.044;8.716;2022-07-29T16:34:12;2.50;;;0.90;;
25609;SDS011;13479;49.044;8.716;2022-07-29T16:36:38;2.20;;;1.08;;
25609;SDS011;13479;49.044;8.716;2022-07-29T16:39:03;2.00;;;1.00;;
25609;SDS011;13479;49.044;8.716;2022-07-29T16:41:29;3.92;;;0.90;;
25609;SDS011;13479;49.044;8.716;2022-07-29T16:43:55;3.50;;;1.10;;
25609;SDS011;13479;49.044;8.716;2022-07-29T16:46:20;2.53;;;1.10;;
25609;SDS011;13479;49.044;8.716;2022-07-29T16:48:46;2.08;;;0.90;;
25609;SDS011;13479;49.044;8.716;2022-07-29T16:51:11;4.95;;;1.00;;
25609;SDS011;13479;49.044;8.716;2022-07-29T16:53:37;3.40;;;1.00;;
25609;SDS011;13479;49.044;8.716;2022-07-29T16:56:02;3.53;;;0.90;;
25609;SDS011;13479;49.044;8.716;2022-07-29T16:58:27;3.75;;;1.02;;
25609;SDS011;13479;49.044;8.716;2022-07-29T17:00:53;2.95;;;0.80;;
25609;SDS011;13479;49.044;8.716;2022-07-29T17:03:18;3.60;;;1.08;;
25609;SDS011;13479;49.044;8.716;2022-07-29T17:05:44;21.77;;;2.13;;
25609;SDS011;13479;49.044;8.716;2022-07-29T17:08:09;7.00;;;1.48;;
25609;SDS011;13479;49.044;8.716;2022-07-29T17:10:34;7.68;;;1.35;;
25609;SDS011;13479;49.044;8.716;2022-07-29T17:12:59;7.50;;;1.23;;
25609;SDS011;13479;49.044;8.716;2022-07-29T17:15:25;6.78;;;1.40;;
25609;SDS011;13479;49.044;8.716;2022-07-29T17:17:50;7.20;;;1.45;;
25609;SDS011;13479;49.044;8.716;2022-07-29T17:20:15;6.82;;;1.15;;
25609;SDS011;13479;49.044;8.716;2022-07-29T17:22:41;5.03;;;1.13;;
25609;SDS011;13479;49.044;8.716;2022-07-29T17:25:07;6.25;;;1.20;;
25609;SDS011;13479;49.044;8.716;2022-07-29T17:27:33;2.47;;;1.00;;
25609;SDS011;13479;49.044;8.716;2022-07-29T17:29:59;5.70;;;1.08;;
25609;SDS011;13479;49.044;8.716;2022-07-29T17:32:25;5.75;;;1.08;;
25609;SDS011;13479;49.044;8.716;2022-07-29T17:34:50;2.05;;;1.10;;
25609;SDS011;13479;49.044;8.716;2022-07-29T17:37:16;3.22;;;0.85;;
25609;SDS011;13479;49.044;8.716;2022-07-29T17:39:41;3.10;;;1.00;;
25609;SDS011;13479;49.044;8.716;2022-07-29T17:42:10;8.80;;;1.30;;
25609;SDS011;13479;49.044;8.716;2022-07-29T17:44:37;5.82;;;1.45;;
25609;SDS011;13479;49.044;8.716;2022-07-29T17:47:03;9.63;;;1.10;;
25609;SDS011;13479;49.044;8.716;2022-07-29T17:49:30;6.30;;;1.40;;
25609;SDS011;13479;49.044;8.716;2022-07-29T17:51:55;2.95;;;1.10;;
25609;SDS011;13479;49.044;8.716;2022-07-29T17:54:20;6.28;;;1.33;;
25609;SDS011;13479;49.044;8.716;2022-07-29T17:56:45;4.63;;;1.20;;
25609;SDS011;13479;49.044;8.716;2022-07-29T17:59:11;2.38;;;1.00;;
25609;SDS011;13479;49.044;8.716;2022-07-29T18:01:38;2.35;;;1.10;;
25609;SDS011;13479;49.044;8.716;2022-07-29T18:04:05;2.13;;;1.20;;
25609;SDS011;13479;49.044;8.716;2022-07-29T18:06:30;17.20;;;2.53;;
25609;SDS011;13479;49.044;8.716;2022-07-29T18:08:56;13.20;;;1.80;;
25609;SDS011;13479;49.044;8.716;2022-07-29T18:11:21;15.50;;;1.95;;
25609;SDS011;13479;49.044;8.716;2022-07-29T18:13:47;9.05;;;1.58;;
25609;SDS011;13479;49.044;8.716;2022-07-29T18:16:12;9.35;;;1.67;;
25609;SDS011;13479;49.044;8.716;2022-07-29T18:18:38;5.20;;;1.30;;
25609;SDS011;13479;49.044;8.716;2022-07-29T18:21:03;3.17;;;1.63;;
25609;SDS011;13479;49.044;8.716;2022-07-29T18:23:29;8.07;;;1.70;;
25609;SDS011;13479;49.044;8.716;2022-07-29T18:25:54;6.78;;;1.50;;
25609;SDS011;13479;49.044;8.716;2022-07-29T18:28:19;4.28;;;1.30;;
25609;SDS011;13479;49.044;8.716;2022-07-29T18:30:46;3.10;;;1.20;;
25609;SDS011;13479;49.044;8.716;2022-07-29T18:33:12;4.28;;;1.38;;
25609;SDS011;13479;49.044;8.716;2022-07-29T18:35:40;2.38;;;1.35;;
25609;SDS011;13479;49.044;8.716;2022-07-29T18:38:06;3.67;;;1.30;;
25609;SDS011;13479;49.044;8.716;2022-07-29T18:40:31;4.35;;;1.42;;
25609;SDS011;13479;49.044;8.716;2022-07-29T18:42:56;6.57;;;1.48;;
25609;SDS011;13479;49.044;8.716;2022-07-29T18:45:22;4.07;;;1.20;;
25609;SDS011;13479;49.044;8.716;2022-07-29T18:47:47;2.53;;;1.30;;
25609;SDS011;13479;49.044;8.716;2022-07-29T18:50:13;6.00;;;1.40;;
25609;SDS011;13479;49.044;8.716;2022-07-29T18:52:38;4.57;;;1.30;;
25609;SDS011;13479;49.044;8.716;2022-07-29T18:55:04;3.00;;;1.27;;
25609;SDS011;13479;49.044;8.716;2022-07-29T18:57:30;4.07;;;1.30;;
25609;SDS011;13479;49.044;8.716;2022-07-29T18:59:55;7.50;;;1.45;;
25609;SDS011;13479;49.044;8.716;2022-07-29T19:02:20;4.95;;;1.33;;
25609;SDS011;13479;49.044;8.716;2022-07-29T19:04:46;5.28;;;1.20;;
25609;SDS011;13479;49.044;8.716;2022-07-29T19:07:13;2.28;;;1.30;;
25609;SDS011;13479;49.044;8.716;2022-07-29T19:09:40;4.65;;;1.40;;
25609;SDS011;13479;49.044;8.716;2022-07-29T19:12:06;2.58;;;1.23;;
25609;SDS011;13479;49.044;8.716;2022-07-29T19:14:31;4.75;;;1.30;;
25609;SDS011;13479;49.044;8.716;2022-07-29T19:16:56;5.68;;;1.50;;
25609;SDS011;13479;49.044;8.716;2022-07-29T19:19:22;2.97;;;1.40;;
25609;SDS011;13479;49.044;8.716;2022-07-29T19:21:47;4.72;;;1.27;;
25609;SDS011;13479;49.044;8.716;2022-07-29T19:24:13;6.75;;;1.50;;
25609;SDS011;13479;49.044;8.716;2022-07-29T19:26:38;4.97;;;1.70;;
25609;SDS011;13479;49.044;8.716;2022-07-29T19:29:10;3.47;;;1.27;;
25609;SDS011;13479;49.044;8.716;2022-07-29T19:31:35;6.80;;;1.20;;